sensor_id;sensor_type;location;lat;lon;timestamp;P1;durP1;ratioP1;P2;durP2;ratioP2
1174;SDS011;576;48.418;10.074;2023-07-09T00:01:56;4.83;;;4.43;;
1174;SDS011;576;48.418;10.074;2023-07-09T00:04:24;7.30;;;4.90;;
1174;SDS011;576;48.418;10.074;2023-07-09T00:06:55;8.57;;;5.33;;
1174;SDS011;576;48.418;10.074;2023-07-09T00:09:26;6.10;;;5.07;;
1174;SDS011;576;48.418;10.074;2023-07-09T00:11:54;6.50;;;5.40;;
1174;SDS011;576;48.418;10.074;2023-07-09T00:14:23;5.43;;;4.93;;
1174;SDS011;576;48.418;10.074;2023-07-09T00:16:54;5.70;;;5.10;;
1174;SDS011;576;48.418;10.074;2023-07-09T00:19:22;5.20;;;4.73;;
1174;SDS011;576;48.418;10.074;2023-07-09T00:21:51;5.47;;;4.93;;
1174;SDS011;576;48.418;10.074;2023-07-09T00:24:20;4.77;;;4.37;;
1174;SDS011;576;48.418;10.074;2023-07-09T00:26:50;5.23;;;4.80;;
1174;SDS011;576;48.418;10.074;2023-07-09T00:29:19;5.00;;;4.60;;
1174;SDS011;576;48.418;10.074;2023-07-09T00:31:47;5.90;;;5.40;;
1174;SDS011;576;48.418;10.074;2023-07-09T00:34:16;5.77;;;5.37;;
1174;SDS011;576;48.418;10.074;2023-07-09T00:36:48;6.03;;;5.53;;
1174;SDS011;576;48.418;10.074;2023-07-09T00:39:18;5.70;;;5.30;;
1174;SDS011;576;48.418;10.074;2023-07-09T00:41:48;5.63;;;5.13;;
1174;SDS011;576;48.418;10.074;2023-07-09T00:44:26;5.87;;;5.37;;
1174;SDS011;576;48.418;10.074;2023-07-09T00:47:17;6.77;;;6.10;;
1174;SDS011;576;48.418;10.074;2023-07-09T00:50:08;5.93;;;5.37;;
1174;SDS011;576;48.418;10.074;2023-07-09T00:52:46;6.53;;;5.83;;
1174;SDS011;576;48.418;10.074;2023-07-09T00:55:21;6.23;;;5.77;;
1174;SDS011;576;48.418;10.074;2023-07-09T00:57:54;6.43;;;5.93;;
1174;SDS011;576;48.418;10.074;2023-07-09T01:00:30;6.87;;;6.27;;
1174;SDS011;576;48.418;10.074;2023-07-09T01:03:15;7.23;;;6.63;;
1174;SDS011;576;48.418;10.074;2023-07-09T01:05:49;6.30;;;5.80;;
1174;SDS011;576;48.418;10.074;2023-07-09T01:08:21;6.23;;;5.63;;
1174;SDS011;576;48.418;10.074;2023-07-09T01:10:50;6.10;;;5.47;;
1174;SDS011;576;48.418;10.074;2023-07-09T01:13:19;6.33;;;5.83;;
1174;SDS011;576;48.418;10.074;2023-07-09T01:15:50;5.83;;;5.37;;
1174;SDS011;576;48.418;10.074;2023-07-09T01:18:18;5.90;;;5.40;;
1174;SDS011;576;48.418;10.074;2023-07-09T01:20:47;7.33;;;5.60;;
1174;SDS011;576;48.418;10.074;2023-07-09T01:23:17;6.70;;;6.07;;
1174;SDS011;576;48.418;10.074;2023-07-09T01:25:46;8.17;;;5.40;;
1174;SDS011;576;48.418;10.074;2023-07-09T01:28:20;5.63;;;5.23;;
1174;SDS011;576;48.418;10.074;2023-07-09T01:30:49;6.60;;;5.40;;
1174;SDS011;576;48.418;10.074;2023-07-09T01:33:21;7.10;;;5.10;;
1174;SDS011;576;48.418;10.074;2023-07-09T01:35:50;8.97;;;5.23;;
1174;SDS011;576;48.418;10.074;2023-07-09T01:38:22;5.70;;;5.20;;
1174;SDS011;576;48.418;10.074;2023-07-09T01:40:50;5.37;;;4.87;;
1174;SDS011;576;48.418;10.074;2023-07-09T01:43:19;5.50;;;4.97;;
1174;SDS011;576;48.418;10.074;2023-07-09T01:45:47;5.57;;;5.03;;
1174;SDS011;576;48.418;10.074;2023-07-09T01:48:16;8.13;;;5.80;;
1174;SDS011;576;48.418;10.074;2023-07-09T01:50:46;5.20;;;4.70;;
1174;SDS011;576;48.418;10.074;2023-07-09T01:53:16;6.13;;;5.63;;
1174;SDS011;576;48.418;10.074;2023-07-09T01:55:50;5.50;;;5.00;;
1174;SDS011;576;48.418;10.074;2023-07-09T01:58:21;5.77;;;5.27;;
1174;SDS011;576;48.418;10.074;2023-07-09T02:00:51;6.50;;;5.90;;
1174;SDS011;576;48.418;10.074;2023-07-09T02:03:19;5.00;;;4.60;;
1174;SDS011;576;48.418;10.074;2023-07-09T02:05:49;6.23;;;5.60;;
1174;SDS011;576;48.418;10.074;2023-07-09T02:08:20;6.20;;;5.63;;
1174;SDS011;576;48.418;10.074;2023-07-09T02:10:50;6.33;;;5.73;;
1174;SDS011;576;48.418;10.074;2023-07-09T02:13:18;6.93;;;6.20;;
1174;SDS011;576;48.418;10.074;2023-07-09T02:15:47;7.03;;;5.37;;
1174;SDS011;576;48.418;10.074;2023-07-09T02:18:15;4.93;;;4.53;;
1174;SDS011;576;48.418;10.074;2023-07-09T02:20:45;6.10;;;5.60;;
1174;SDS011;576;48.418;10.074;2023-07-09T02:23:13;6.00;;;5.40;;
1174;SDS011;576;48.418;10.074;2023-07-09T02:25:41;7.00;;;5.80;;
1174;SDS011;576;48.418;10.074;2023-07-09T02:28:11;5.87;;;5.23;;
1174;SDS011;576;48.418;10.074;2023-07-09T02:30:39;6.10;;;5.50;;
1174;SDS011;576;48.418;10.074;2023-07-09T02:33:07;5.20;;;4.70;;
1174;SDS011;576;48.418;10.074;2023-07-09T02:35:35;5.23;;;4.83;;
1174;SDS011;576;48.418;10.074;2023-07-09T02:38:04;9.20;;;6.13;;
1174;SDS011;576;48.418;10.074;2023-07-09T02:40:32;6.40;;;4.67;;
1174;SDS011;576;48.418;10.074;2023-07-09T02:43:01;6.50;;;4.87;;
1174;SDS011;576;48.418;10.074;2023-07-09T02:45:30;5.70;;;4.70;;
1174;SDS011;576;48.418;10.074;2023-07-09T02:47:59;8.67;;;5.30;;
1174;SDS011;576;48.418;10.074;2023-07-09T02:50:33;8.30;;;6.13;;
1174;SDS011;576;48.418;10.074;2023-07-09T02:53:01;6.47;;;5.87;;
1174;SDS011;576;48.418;10.074;2023-07-09T02:55:30;6.83;;;5.50;;
1174;SDS011;576;48.418;10.074;2023-07-09T02:57:58;6.90;;;5.27;;
1174;SDS011;576;48.418;10.074;2023-07-09T03:00:26;8.30;;;5.40;;
1174;SDS011;576;48.418;10.074;2023-07-09T03:02:56;7.07;;;5.87;;
1174;SDS011;576;48.418;10.074;2023-07-09T03:05:24;6.27;;;4.83;;
1174;SDS011;576;48.418;10.074;2023-07-09T03:07:52;5.70;;;5.20;;
1174;SDS011;576;48.418;10.074;2023-07-09T03:10:21;7.90;;;4.73;;
1174;SDS011;576;48.418;10.074;2023-07-09T03:12:49;5.67;;;5.17;;
1174;SDS011;576;48.418;10.074;2023-07-09T03:15:17;5.83;;;5.23;;
1174;SDS011;576;48.418;10.074;2023-07-09T03:17:45;6.10;;;5.50;;
1174;SDS011;576;48.418;10.074;2023-07-09T03:20:15;5.90;;;5.30;;
1174;SDS011;576;48.418;10.074;2023-07-09T03:22:43;7.37;;;5.27;;
1174;SDS011;576;48.418;10.074;2023-07-09T03:25:11;6.33;;;5.83;;
1174;SDS011;576;48.418;10.074;2023-07-09T03:27:39;8.77;;;6.17;;
1174;SDS011;576;48.418;10.074;2023-07-09T03:30:08;7.80;;;5.70;;
1174;SDS011;576;48.418;10.074;2023-07-09T03:32:36;5.87;;;5.33;;
1174;SDS011;576;48.418;10.074;2023-07-09T03:35:05;6.47;;;5.33;;
1174;SDS011;576;48.418;10.074;2023-07-09T03:37:35;5.90;;;5.13;;
1174;SDS011;576;48.418;10.074;2023-07-09T03:40:05;5.87;;;5.27;;
1174;SDS011;576;48.418;10.074;2023-07-09T03:42:34;5.20;;;4.80;;
1174;SDS011;576;48.418;10.074;2023-07-09T03:45:02;7.43;;;4.90;;
1174;SDS011;576;48.418;10.074;2023-07-09T03:47:30;5.37;;;4.90;;
1174;SDS011;576;48.418;10.074;2023-07-09T03:49:59;5.87;;;5.37;;
1174;SDS011;576;48.418;10.074;2023-07-09T03:52:27;8.43;;;5.10;;
1174;SDS011;576;48.418;10.074;2023-07-09T03:54:56;5.07;;;4.67;;
1174;SDS011;576;48.418;10.074;2023-07-09T03:57:27;6.33;;;5.10;;
1174;SDS011;576;48.418;10.074;2023-07-09T03:59:55;5.23;;;4.73;;
1174;SDS011;576;48.418;10.074;2023-07-09T04:02:23;5.70;;;5.10;;
1174;SDS011;576;48.418;10.074;2023-07-09T04:04:51;6.37;;;5.77;;
1174;SDS011;576;48.418;10.074;2023-07-09T04:07:19;5.80;;;4.57;;
1174;SDS011;576;48.418;10.074;2023-07-09T04:09:48;5.97;;;5.37;;
1174;SDS011;576;48.418;10.074;2023-07-09T04:12:17;5.87;;;5.37;;
1174;SDS011;576;48.418;10.074;2023-07-09T04:14:46;5.23;;;4.73;;
1174;SDS011;576;48.418;10.074;2023-07-09T04:17:14;5.13;;;4.73;;
1174;SDS011;576;48.418;10.074;2023-07-09T04:19:42;5.57;;;5.10;;
1174;SDS011;576;48.418;10.074;2023-07-09T04:22:10;5.53;;;4.50;;
1174;SDS011;576;48.418;10.074;2023-07-09T04:24:39;5.60;;;5.10;;
1174;SDS011;576;48.418;10.074;2023-07-09T04:27:07;5.60;;;5.10;;
1174;SDS011;576;48.418;10.074;2023-07-09T04:29:37;5.40;;;4.87;;
1174;SDS011;576;48.418;10.074;2023-07-09T04:32:06;8.63;;;4.83;;
1174;SDS011;576;48.418;10.074;2023-07-09T04:34:35;7.10;;;5.50;;
1174;SDS011;576;48.418;10.074;2023-07-09T04:37:05;6.13;;;5.53;;
1174;SDS011;576;48.418;10.074;2023-07-09T04:39:35;5.93;;;5.33;;
1174;SDS011;576;48.418;10.074;2023-07-09T04:42:05;4.87;;;4.37;;
1174;SDS011;576;48.418;10.074;2023-07-09T04:44:39;5.63;;;5.00;;
1174;SDS011;576;48.418;10.074;2023-07-09T04:47:07;7.83;;;4.87;;
1174;SDS011;576;48.418;10.074;2023-07-09T04:49:36;5.63;;;5.07;;
1174;SDS011;576;48.418;10.074;2023-07-09T04:52:04;9.10;;;5.40;;
1174;SDS011;576;48.418;10.074;2023-07-09T04:54:33;6.33;;;4.73;;
1174;SDS011;576;48.418;10.074;2023-07-09T04:57:01;6.37;;;5.10;;
1174;SDS011;576;48.418;10.074;2023-07-09T04:59:30;6.57;;;5.50;;
1174;SDS011;576;48.418;10.074;2023-07-09T05:02:00;7.27;;;6.67;;
1174;SDS011;576;48.418;10.074;2023-07-09T05:04:28;7.80;;;5.17;;
1174;SDS011;576;48.418;10.074;2023-07-09T05:06:56;5.70;;;5.20;;
1174;SDS011;576;48.418;10.074;2023-07-09T05:09:25;8.77;;;5.50;;
1174;SDS011;576;48.418;10.074;2023-07-09T05:11:53;7.60;;;5.07;;
1174;SDS011;576;48.418;10.074;2023-07-09T05:14:21;5.60;;;5.10;;
1174;SDS011;576;48.418;10.074;2023-07-09T05:16:49;5.47;;;4.73;;
1174;SDS011;576;48.418;10.074;2023-07-09T05:19:19;6.53;;;4.93;;
1174;SDS011;576;48.418;10.074;2023-07-09T05:21:47;8.63;;;5.00;;
1174;SDS011;576;48.418;10.074;2023-07-09T05:24:15;7.20;;;5.03;;
1174;SDS011;576;48.418;10.074;2023-07-09T05:26:43;8.50;;;5.07;;
1174;SDS011;576;48.418;10.074;2023-07-09T05:29:12;7.03;;;4.93;;
1174;SDS011;576;48.418;10.074;2023-07-09T05:31:40;13.47;;;4.97;;
1174;SDS011;576;48.418;10.074;2023-07-09T05:34:08;5.30;;;4.80;;
1174;SDS011;576;48.418;10.074;2023-07-09T05:36:38;4.77;;;4.30;;
1174;SDS011;576;48.418;10.074;2023-07-09T05:39:07;4.83;;;4.43;;
1174;SDS011;576;48.418;10.074;2023-07-09T05:41:35;4.40;;;4.00;;
1174;SDS011;576;48.418;10.074;2023-07-09T05:44:03;6.07;;;5.00;;
1174;SDS011;576;48.418;10.074;2023-07-09T05:46:33;6.17;;;5.10;;
1174;SDS011;576;48.418;10.074;2023-07-09T05:49:03;5.13;;;4.73;;
1174;SDS011;576;48.418;10.074;2023-07-09T05:51:32;5.13;;;4.63;;
1174;SDS011;576;48.418;10.074;2023-07-09T05:54:02;5.50;;;5.00;;
1174;SDS011;576;48.418;10.074;2023-07-09T05:56:30;7.30;;;5.27;;
1174;SDS011;576;48.418;10.074;2023-07-09T05:58:58;5.80;;;5.30;;
1174;SDS011;576;48.418;10.074;2023-07-09T06:01:26;5.93;;;5.43;;
1174;SDS011;576;48.418;10.074;2023-07-09T06:03:54;6.77;;;5.40;;
1174;SDS011;576;48.418;10.074;2023-07-09T06:06:23;7.03;;;5.10;;
1174;SDS011;576;48.418;10.074;2023-07-09T06:08:52;6.23;;;4.87;;
1174;SDS011;576;48.418;10.074;2023-07-09T06:11:22;4.90;;;4.57;;
1174;SDS011;576;48.418;10.074;2023-07-09T06:13:50;5.30;;;4.90;;
1174;SDS011;576;48.418;10.074;2023-07-09T06:16:19;5.20;;;4.43;;
1174;SDS011;576;48.418;10.074;2023-07-09T06:18:47;5.17;;;4.67;;
1174;SDS011;576;48.418;10.074;2023-07-09T06:21:16;6.07;;;4.97;;
1174;SDS011;576;48.418;10.074;2023-07-09T06:23:44;5.00;;;4.60;;
1174;SDS011;576;48.418;10.074;2023-07-09T06:26:13;5.60;;;4.67;;
1174;SDS011;576;48.418;10.074;2023-07-09T06:28:42;4.30;;;4.00;;
1174;SDS011;576;48.418;10.074;2023-07-09T06:31:10;5.00;;;4.60;;
1174;SDS011;576;48.418;10.074;2023-07-09T06:33:39;5.50;;;5.00;;
1174;SDS011;576;48.418;10.074;2023-07-09T06:36:08;5.00;;;4.60;;
1174;SDS011;576;48.418;10.074;2023-07-09T06:38:36;5.23;;;4.77;;
1174;SDS011;576;48.418;10.074;2023-07-09T06:41:04;4.93;;;4.63;;
1174;SDS011;576;48.418;10.074;2023-07-09T06:43:33;6.20;;;4.87;;
1174;SDS011;576;48.418;10.074;2023-07-09T06:46:07;4.10;;;3.80;;
1174;SDS011;576;48.418;10.074;2023-07-09T06:48:38;5.20;;;4.80;;
1174;SDS011;576;48.418;10.074;2023-07-09T06:51:06;4.80;;;4.30;;
1174;SDS011;576;48.418;10.074;2023-07-09T06:53:34;4.37;;;3.97;;
1174;SDS011;576;48.418;10.074;2023-07-09T06:56:03;4.27;;;3.97;;
1174;SDS011;576;48.418;10.074;2023-07-09T06:58:32;5.33;;;4.83;;
1174;SDS011;576;48.418;10.074;2023-07-09T07:01:01;4.53;;;4.20;;
1174;SDS011;576;48.418;10.074;2023-07-09T07:03:32;5.87;;;4.80;;
1174;SDS011;576;48.418;10.074;2023-07-09T07:06:01;5.90;;;5.30;;
1174;SDS011;576;48.418;10.074;2023-07-09T07:08:30;5.43;;;4.87;;
1174;SDS011;576;48.418;10.074;2023-07-09T07:10:59;5.20;;;4.80;;
1174;SDS011;576;48.418;10.074;2023-07-09T07:13:29;4.73;;;4.33;;
1174;SDS011;576;48.418;10.074;2023-07-09T07:15:58;4.87;;;4.47;;
1174;SDS011;576;48.418;10.074;2023-07-09T07:18:27;5.17;;;4.77;;
1174;SDS011;576;48.418;10.074;2023-07-09T07:20:56;5.67;;;4.90;;
1174;SDS011;576;48.418;10.074;2023-07-09T07:23:24;4.80;;;4.43;;
1174;SDS011;576;48.418;10.074;2023-07-09T07:25:53;4.33;;;4.03;;
1174;SDS011;576;48.418;10.074;2023-07-09T07:28:22;5.73;;;5.23;;
1174;SDS011;576;48.418;10.074;2023-07-09T07:30:59;5.23;;;4.43;;
1174;SDS011;576;48.418;10.074;2023-07-09T07:33:28;5.90;;;4.93;;
1174;SDS011;576;48.418;10.074;2023-07-09T07:35:58;4.97;;;4.63;;
1174;SDS011;576;48.418;10.074;2023-07-09T07:38:46;5.80;;;5.40;;
1174;SDS011;576;48.418;10.074;2023-07-09T07:41:14;5.10;;;4.60;;
1174;SDS011;576;48.418;10.074;2023-07-09T07:43:42;5.80;;;4.50;;
1174;SDS011;576;48.418;10.074;2023-07-09T07:46:10;4.90;;;4.50;;
1174;SDS011;576;48.418;10.074;2023-07-09T07:48:39;5.77;;;5.27;;
1174;SDS011;576;48.418;10.074;2023-07-09T07:51:08;5.03;;;4.20;;
1174;SDS011;576;48.418;10.074;2023-07-09T07:53:37;4.77;;;4.47;;
1174;SDS011;576;48.418;10.074;2023-07-09T07:56:05;5.67;;;4.60;;
1174;SDS011;576;48.418;10.074;2023-07-09T07:58:33;6.00;;;4.60;;
1174;SDS011;576;48.418;10.074;2023-07-09T08:01:02;4.67;;;4.27;;
1174;SDS011;576;48.418;10.074;2023-07-09T08:03:30;6.70;;;5.33;;
1174;SDS011;576;48.418;10.074;2023-07-09T08:06:01;5.07;;;4.10;;
1174;SDS011;576;48.418;10.074;2023-07-09T08:08:31;8.03;;;3.97;;
1174;SDS011;576;48.418;10.074;2023-07-09T08:11:00;5.20;;;4.80;;
1174;SDS011;576;48.418;10.074;2023-07-09T08:13:32;5.47;;;4.97;;
1174;SDS011;576;48.418;10.074;2023-07-09T08:16:01;5.67;;;4.87;;
1174;SDS011;576;48.418;10.074;2023-07-09T08:18:30;4.80;;;4.40;;
1174;SDS011;576;48.418;10.074;2023-07-09T08:20:58;5.30;;;4.73;;
1174;SDS011;576;48.418;10.074;2023-07-09T08:23:27;4.50;;;4.10;;
1174;SDS011;576;48.418;10.074;2023-07-09T08:25:57;4.87;;;4.47;;
1174;SDS011;576;48.418;10.074;2023-07-09T08:28:27;4.37;;;3.97;;
1174;SDS011;576;48.418;10.074;2023-07-09T08:30:56;5.03;;;4.63;;
1174;SDS011;576;48.418;10.074;2023-07-09T08:33:24;4.87;;;4.10;;
1174;SDS011;576;48.418;10.074;2023-07-09T08:35:53;5.47;;;4.27;;
1174;SDS011;576;48.418;10.074;2023-07-09T08:38:22;4.70;;;4.30;;
1174;SDS011;576;48.418;10.074;2023-07-09T08:40:53;4.63;;;4.23;;
1174;SDS011;576;48.418;10.074;2023-07-09T08:43:32;4.43;;;4.13;;
1174;SDS011;576;48.418;10.074;2023-07-09T08:46:05;7.30;;;5.20;;
1174;SDS011;576;48.418;10.074;2023-07-09T08:48:38;5.40;;;4.20;;
1174;SDS011;576;48.418;10.074;2023-07-09T08:51:10;4.70;;;4.37;;
1174;SDS011;576;48.418;10.074;2023-07-09T08:53:44;4.73;;;4.33;;
1174;SDS011;576;48.418;10.074;2023-07-09T08:56:16;4.93;;;4.53;;
1174;SDS011;576;48.418;10.074;2023-07-09T08:58:47;4.70;;;4.30;;
1174;SDS011;576;48.418;10.074;2023-07-09T09:01:18;5.50;;;5.10;;
1174;SDS011;576;48.418;10.074;2023-07-09T09:03:49;5.63;;;4.60;;
1174;SDS011;576;48.418;10.074;2023-07-09T09:06:19;4.77;;;4.43;;
1174;SDS011;576;48.418;10.074;2023-07-09T09:08:53;7.13;;;4.70;;
1174;SDS011;576;48.418;10.074;2023-07-09T09:11:36;5.10;;;4.60;;
1174;SDS011;576;48.418;10.074;2023-07-09T09:14:19;4.60;;;4.20;;
1174;SDS011;576;48.418;10.074;2023-07-09T09:16:55;6.30;;;4.47;;
1174;SDS011;576;48.418;10.074;2023-07-09T09:19:26;5.07;;;4.67;;
1174;SDS011;576;48.418;10.074;2023-07-09T09:21:57;5.20;;;4.80;;
1174;SDS011;576;48.418;10.074;2023-07-09T09:24:33;4.40;;;4.10;;
1174;SDS011;576;48.418;10.074;2023-07-09T09:27:03;4.87;;;4.10;;
1174;SDS011;576;48.418;10.074;2023-07-09T09:29:33;4.97;;;4.47;;
1174;SDS011;576;48.418;10.074;2023-07-09T09:32:04;4.77;;;4.33;;
1174;SDS011;576;48.418;10.074;2023-07-09T09:34:45;6.10;;;4.60;;
1174;SDS011;576;48.418;10.074;2023-07-09T09:37:15;5.27;;;4.30;;
1174;SDS011;576;48.418;10.074;2023-07-09T09:39:52;4.63;;;4.33;;
1174;SDS011;576;48.418;10.074;2023-07-09T09:42:40;4.60;;;4.30;;
1174;SDS011;576;48.418;10.074;2023-07-09T09:45:12;4.83;;;4.20;;
1174;SDS011;576;48.418;10.074;2023-07-09T09:47:44;5.40;;;4.90;;
1174;SDS011;576;48.418;10.074;2023-07-09T09:50:13;4.60;;;4.10;;
1174;SDS011;576;48.418;10.074;2023-07-09T09:52:42;4.83;;;4.43;;
1174;SDS011;576;48.418;10.074;2023-07-09T09:55:13;5.73;;;5.23;;
1174;SDS011;576;48.418;10.074;2023-07-09T09:57:48;3.90;;;3.60;;
1174;SDS011;576;48.418;10.074;2023-07-09T10:00:21;4.23;;;3.93;;
1174;SDS011;576;48.418;10.074;2023-07-09T10:02:56;4.23;;;3.93;;
1174;SDS011;576;48.418;10.074;2023-07-09T10:05:27;3.83;;;3.53;;
1174;SDS011;576;48.418;10.074;2023-07-09T10:08:01;6.97;;;3.70;;
1174;SDS011;576;48.418;10.074;2023-07-09T10:10:33;4.97;;;4.10;;
1174;SDS011;576;48.418;10.074;2023-07-09T10:13:03;6.47;;;4.43;;
1174;SDS011;576;48.418;10.074;2023-07-09T10:15:40;7.80;;;3.90;;
1174;SDS011;576;48.418;10.074;2023-07-09T10:18:16;5.23;;;4.30;;
1174;SDS011;576;48.418;10.074;2023-07-09T10:21:04;5.07;;;3.97;;
1174;SDS011;576;48.418;10.074;2023-07-09T10:23:36;6.40;;;4.20;;
1174;SDS011;576;48.418;10.074;2023-07-09T10:26:11;7.60;;;4.03;;
1174;SDS011;576;48.418;10.074;2023-07-09T10:31:53;5.80;;;4.33;;
1174;SDS011;576;48.418;10.074;2023-07-09T10:34:28;9.03;;;4.30;;
1174;SDS011;576;48.418;10.074;2023-07-09T10:37:15;6.40;;;4.53;;
1174;SDS011;576;48.418;10.074;2023-07-09T10:39:53;5.70;;;4.40;;
1174;SDS011;576;48.418;10.074;2023-07-09T10:42:25;5.37;;;3.90;;
1174;SDS011;576;48.418;10.074;2023-07-09T10:44:57;7.03;;;4.77;;
1174;SDS011;576;48.418;10.074;2023-07-09T10:47:31;9.43;;;3.83;;
1174;SDS011;576;48.418;10.074;2023-07-09T10:50:03;8.30;;;5.40;;
1174;SDS011;576;48.418;10.074;2023-07-09T10:52:37;6.40;;;4.07;;
1174;SDS011;576;48.418;10.074;2023-07-09T10:55:13;5.00;;;4.07;;
1174;SDS011;576;48.418;10.074;2023-07-09T10:57:46;9.73;;;4.53;;
1174;SDS011;576;48.418;10.074;2023-07-09T11:00:24;5.30;;;3.90;;
1174;SDS011;576;48.418;10.074;2023-07-09T11:03:03;7.03;;;4.50;;
1174;SDS011;576;48.418;10.074;2023-07-09T11:05:37;8.13;;;4.73;;
1174;SDS011;576;48.418;10.074;2023-07-09T11:08:08;5.07;;;4.00;;
1174;SDS011;576;48.418;10.074;2023-07-09T11:10:41;6.30;;;4.00;;
1174;SDS011;576;48.418;10.074;2023-07-09T11:13:17;5.03;;;4.00;;
1174;SDS011;576;48.418;10.074;2023-07-09T11:16:12;5.17;;;4.67;;
1174;SDS011;576;48.418;10.074;2023-07-09T11:18:52;6.73;;;3.90;;
1174;SDS011;576;48.418;10.074;2023-07-09T11:21:23;4.60;;;4.20;;
1174;SDS011;576;48.418;10.074;2023-07-09T11:23:52;4.73;;;4.27;;
1174;SDS011;576;48.418;10.074;2023-07-09T11:26:22;8.33;;;4.23;;
1174;SDS011;576;48.418;10.074;2023-07-09T11:28:53;5.20;;;3.67;;
1174;SDS011;576;48.418;10.074;2023-07-09T11:31:24;6.80;;;4.00;;
1174;SDS011;576;48.418;10.074;2023-07-09T11:34:07;6.03;;;4.40;;
1174;SDS011;576;48.418;10.074;2023-07-09T11:36:46;5.43;;;4.77;;
1174;SDS011;576;48.418;10.074;2023-07-09T11:39:22;4.90;;;4.53;;
1174;SDS011;576;48.418;10.074;2023-07-09T11:41:55;5.33;;;4.80;;
1174;SDS011;576;48.418;10.074;2023-07-09T11:44:24;6.33;;;4.90;;
1174;SDS011;576;48.418;10.074;2023-07-09T11:47:00;6.73;;;5.30;;
1174;SDS011;576;48.418;10.074;2023-07-09T11:49:44;5.33;;;4.80;;
1174;SDS011;576;48.418;10.074;2023-07-09T11:52:18;5.10;;;4.60;;
1174;SDS011;576;48.418;10.074;2023-07-09T11:54:52;9.30;;;4.77;;
1174;SDS011;576;48.418;10.074;2023-07-09T11:57:20;4.70;;;4.27;;
1174;SDS011;576;48.418;10.074;2023-07-09T11:59:49;5.13;;;4.70;;
1174;SDS011;576;48.418;10.074;2023-07-09T12:02:19;14.20;;;4.67;;
1174;SDS011;576;48.418;10.074;2023-07-09T12:04:50;6.40;;;4.00;;
1174;SDS011;576;48.418;10.074;2023-07-09T12:07:20;3.87;;;3.53;;
1174;SDS011;576;48.418;10.074;2023-07-09T12:09:51;6.37;;;3.90;;
1174;SDS011;576;48.418;10.074;2023-07-09T12:12:20;5.33;;;4.50;;
1174;SDS011;576;48.418;10.074;2023-07-09T12:14:51;7.50;;;4.20;;
1174;SDS011;576;48.418;10.074;2023-07-09T12:17:22;5.23;;;3.50;;
1174;SDS011;576;48.418;10.074;2023-07-09T12:19:56;5.70;;;3.73;;
1174;SDS011;576;48.418;10.074;2023-07-09T12:22:24;6.43;;;3.90;;
1174;SDS011;576;48.418;10.074;2023-07-09T12:24:53;3.57;;;3.23;;
1174;SDS011;576;48.418;10.074;2023-07-09T12:27:23;5.80;;;3.83;;
1174;SDS011;576;48.418;10.074;2023-07-09T12:29:53;4.23;;;3.90;;
1174;SDS011;576;48.418;10.074;2023-07-09T12:32:23;4.67;;;4.20;;
1174;SDS011;576;48.418;10.074;2023-07-09T12:34:54;5.70;;;3.80;;
1174;SDS011;576;48.418;10.074;2023-07-09T12:37:25;4.73;;;4.03;;
1174;SDS011;576;48.418;10.074;2023-07-09T12:39:58;4.30;;;4.00;;
1174;SDS011;576;48.418;10.074;2023-07-09T12:42:29;4.23;;;3.87;;
1174;SDS011;576;48.418;10.074;2023-07-09T12:45:00;4.53;;;3.70;;
1174;SDS011;576;48.418;10.074;2023-07-09T12:47:29;4.47;;;4.07;;
1174;SDS011;576;48.418;10.074;2023-07-09T12:50:00;5.40;;;3.67;;
1174;SDS011;576;48.418;10.074;2023-07-09T12:52:31;3.23;;;2.93;;
1174;SDS011;576;48.418;10.074;2023-07-09T12:55:01;4.17;;;3.77;;
1174;SDS011;576;48.418;10.074;2023-07-09T12:57:30;4.00;;;3.57;;
1174;SDS011;576;48.418;10.074;2023-07-09T12:59:59;4.70;;;3.90;;
1174;SDS011;576;48.418;10.074;2023-07-09T13:02:28;4.20;;;3.80;;
1174;SDS011;576;48.418;10.074;2023-07-09T13:05:00;4.87;;;4.13;;
1174;SDS011;576;48.418;10.074;2023-07-09T13:07:33;4.30;;;3.90;;
1174;SDS011;576;48.418;10.074;2023-07-09T13:10:06;4.30;;;3.97;;
1174;SDS011;576;48.418;10.074;2023-07-09T13:12:44;3.57;;;3.27;;
1174;SDS011;576;48.418;10.074;2023-07-09T13:15:24;4.63;;;4.10;;
1174;SDS011;576;48.418;10.074;2023-07-09T13:17:57;3.73;;;3.43;;
1174;SDS011;576;48.418;10.074;2023-07-09T13:20:27;6.73;;;4.33;;
1174;SDS011;576;48.418;10.074;2023-07-09T13:22:57;4.57;;;3.40;;
1174;SDS011;576;48.418;10.074;2023-07-09T13:25:25;3.80;;;3.47;;
1174;SDS011;576;48.418;10.074;2023-07-09T13:28:14;4.33;;;3.70;;
1174;SDS011;576;48.418;10.074;2023-07-09T13:30:47;4.33;;;3.93;;
1174;SDS011;576;48.418;10.074;2023-07-09T13:33:17;4.40;;;4.00;;
1174;SDS011;576;48.418;10.074;2023-07-09T13:35:45;4.43;;;3.20;;
1174;SDS011;576;48.418;10.074;2023-07-09T13:38:16;3.63;;;3.33;;
1174;SDS011;576;48.418;10.074;2023-07-09T13:40:46;4.03;;;3.40;;
1174;SDS011;576;48.418;10.074;2023-07-09T13:43:18;4.27;;;3.97;;
1174;SDS011;576;48.418;10.074;2023-07-09T13:45:52;3.80;;;3.50;;
1174;SDS011;576;48.418;10.074;2023-07-09T13:48:23;3.80;;;3.50;;
1174;SDS011;576;48.418;10.074;2023-07-09T13:50:53;5.00;;;3.83;;
1174;SDS011;576;48.418;10.074;2023-07-09T13:53:23;3.87;;;3.30;;
1174;SDS011;576;48.418;10.074;2023-07-09T13:55:53;6.40;;;4.03;;
1174;SDS011;576;48.418;10.074;2023-07-09T13:58:23;4.60;;;3.70;;
1174;SDS011;576;48.418;10.074;2023-07-09T14:00:54;4.60;;;4.20;;
1174;SDS011;576;48.418;10.074;2023-07-09T14:03:32;3.73;;;3.43;;
1174;SDS011;576;48.418;10.074;2023-07-09T14:06:02;4.17;;;3.70;;
1174;SDS011;576;48.418;10.074;2023-07-09T14:08:32;3.60;;;3.30;;
1174;SDS011;576;48.418;10.074;2023-07-09T14:11:00;3.70;;;3.10;;
1174;SDS011;576;48.418;10.074;2023-07-09T14:13:29;3.53;;;3.23;;
1174;SDS011;576;48.418;10.074;2023-07-09T14:16:00;4.33;;;3.93;;
1174;SDS011;576;48.418;10.074;2023-07-09T14:18:29;4.23;;;3.83;;
1174;SDS011;576;48.418;10.074;2023-07-09T14:20:57;5.30;;;4.27;;
1174;SDS011;576;48.418;10.074;2023-07-09T14:23:26;3.73;;;3.43;;
1174;SDS011;576;48.418;10.074;2023-07-09T14:25:55;4.10;;;3.67;;
1174;SDS011;576;48.418;10.074;2023-07-09T14:28:24;3.97;;;3.63;;
1174;SDS011;576;48.418;10.074;2023-07-09T14:30:52;5.73;;;4.23;;
1174;SDS011;576;48.418;10.074;2023-07-09T14:33:20;4.33;;;3.93;;
1174;SDS011;576;48.418;10.074;2023-07-09T14:35:49;3.40;;;3.10;;
1174;SDS011;576;48.418;10.074;2023-07-09T14:38:21;4.50;;;4.00;;
1174;SDS011;576;48.418;10.074;2023-07-09T14:40:51;4.63;;;4.13;;
1174;SDS011;576;48.418;10.074;2023-07-09T14:43:23;4.30;;;3.47;;
1174;SDS011;576;48.418;10.074;2023-07-09T14:45:51;10.40;;;4.47;;
1174;SDS011;576;48.418;10.074;2023-07-09T14:48:22;4.90;;;3.70;;
1174;SDS011;576;48.418;10.074;2023-07-09T14:50:51;5.03;;;4.23;;
1174;SDS011;576;48.418;10.074;2023-07-09T14:53:20;5.93;;;4.00;;
1174;SDS011;576;48.418;10.074;2023-07-09T14:55:53;4.43;;;4.03;;
1174;SDS011;576;48.418;10.074;2023-07-09T14:58:22;4.93;;;4.27;;
1174;SDS011;576;48.418;10.074;2023-07-09T15:00:54;4.40;;;4.00;;
1174;SDS011;576;48.418;10.074;2023-07-09T15:03:22;4.27;;;3.90;;
1174;SDS011;576;48.418;10.074;2023-07-09T15:05:53;3.80;;;3.50;;
1174;SDS011;576;48.418;10.074;2023-07-09T15:08:22;3.53;;;3.23;;
1174;SDS011;576;48.418;10.074;2023-07-09T15:10:52;4.63;;;4.23;;
1174;SDS011;576;48.418;10.074;2023-07-09T15:13:27;4.43;;;4.03;;
1174;SDS011;576;48.418;10.074;2023-07-09T15:15:58;4.40;;;3.67;;
1174;SDS011;576;48.418;10.074;2023-07-09T15:18:26;3.43;;;3.13;;
1174;SDS011;576;48.418;10.074;2023-07-09T15:20:56;4.00;;;3.60;;
1174;SDS011;576;48.418;10.074;2023-07-09T15:23:26;3.60;;;3.30;;
1174;SDS011;576;48.418;10.074;2023-07-09T15:25:56;5.07;;;3.33;;
1174;SDS011;576;48.418;10.074;2023-07-09T15:28:26;3.83;;;3.43;;
1174;SDS011;576;48.418;10.074;2023-07-09T15:30:54;4.33;;;3.67;;
1174;SDS011;576;48.418;10.074;2023-07-09T15:33:22;7.00;;;4.20;;
1174;SDS011;576;48.418;10.074;2023-07-09T15:35:51;6.80;;;3.70;;
1174;SDS011;576;48.418;10.074;2023-07-09T15:38:28;3.77;;;3.37;;
1174;SDS011;576;48.418;10.074;2023-07-09T15:41:00;4.13;;;3.23;;